createdAt,value
2023-04-21T00:00:55.265Z,5.07
2023-04-21T00:03:24.517Z,4.75
2023-04-21T00:05:51.750Z,9.35
2023-04-21T00:08:19.302Z,2.85
2023-04-21T00:10:46.828Z,4.03
2023-04-21T00:13:14.052Z,2.47
2023-04-21T00:15:41.068Z,3.22
2023-04-21T00:18:08.040Z,3.63
2023-04-21T00:20:36.753Z,3.67
2023-04-21T00:23:03.797Z,3.20
2023-04-21T00:25:30.505Z,4.18
2023-04-21T00:27:57.062Z,2.92
2023-04-21T00:30:23.623Z,3.60
2023-04-21T00:32:50.274Z,6.38
2023-04-21T00:35:17.003Z,4.38
2023-04-21T00:37:43.611Z,5.47
2023-04-21T00:40:11.633Z,4.43
2023-04-21T00:42:40.311Z,4.03
2023-04-21T00:45:07.399Z,2.50
2023-04-21T00:47:34.059Z,2.40
2023-04-21T00:50:00.972Z,4.18
2023-04-21T00:52:28.842Z,1.40
2023-04-21T00:54:56.720Z,2.40
2023-04-21T00:57:23.823Z,4.07
2023-04-21T00:59:51.551Z,2.63
2023-04-21T01:02:19.288Z,2.80
2023-04-21T01:04:47.801Z,2.17
2023-04-21T01:07:14.429Z,3.03
2023-04-21T01:09:40.989Z,2.70
2023-04-21T01:12:09.974Z,2.05
2023-04-21T01:14:40.643Z,6.20
2023-04-21T01:17:08.614Z,3.28
2023-04-21T01:19:45.638Z,1.63
2023-04-21T01:22:13.474Z,2.80
2023-04-21T01:24:42.349Z,5.80
2023-04-21T01:27:16.563Z,2.97
2023-04-21T01:29:43.712Z,2.85
2023-04-21T01:32:13.800Z,2.78
2023-04-21T01:34:41.772Z,2.20
2023-04-21T01:37:12.796Z,4.15
2023-04-21T01:39:43.946Z,2.22
2023-04-21T01:42:12.209Z,4.78
2023-04-21T01:44:39.631Z,3.78
2023-04-21T01:47:07.101Z,3.83
2023-04-21T01:49:33.768Z,3.15
2023-04-21T01:52:00.457Z,3.22
2023-04-21T01:54:27.035Z,4.20
2023-04-21T01:56:53.671Z,2.95
2023-04-21T01:59:21.077Z,4.97
2023-04-21T02:01:47.972Z,2.72
2023-04-21T02:04:14.676Z,3.05
2023-04-21T02:06:41.388Z,3.28
2023-04-21T02:09:07.972Z,4.50
2023-04-21T02:11:34.515Z,2.63
2023-04-21T02:14:01.194Z,3.00
2023-04-21T02:16:27.867Z,1.63
2023-04-21T02:18:56.845Z,2.92
2023-04-21T02:21:24.643Z,3.20
2023-04-21T02:23:52.231Z,3.72
2023-04-21T02:26:19.591Z,6.38
2023-04-21T02:28:46.188Z,3.83
2023-04-21T02:31:15.664Z,3.22
2023-04-21T02:33:42.203Z,2.70
2023-04-21T02:36:11.627Z,3.20
2023-04-21T02:38:38.253Z,4.80
2023-04-21T02:41:04.984Z,3.05
2023-04-21T02:43:33.414Z,4.75
2023-04-21T02:45:59.928Z,6.85
2023-04-21T02:48:26.844Z,4.45
2023-04-21T02:50:53.664Z,3.58
2023-04-21T02:53:20.894Z,2.72
2023-04-21T02:55:47.761Z,4.78
2023-04-21T02:58:14.411Z,2.30
2023-04-21T03:00:41.607Z,2.65
2023-04-21T03:03:08.499Z,3.70
2023-04-21T03:05:35.499Z,1.60
2023-04-21T03:08:02.070Z,4.60
2023-04-21T03:10:28.571Z,3.78
2023-04-21T03:12:56.233Z,2.78
2023-04-21T03:15:23.882Z,3.22
2023-04-21T03:17:50.620Z,2.80
2023-04-21T03:20:18.068Z,4.63
2023-04-21T03:22:44.614Z,3.58
2023-04-21T03:25:11.872Z,2.78
2023-04-21T03:27:38.790Z,4.32
2023-04-21T03:30:07.007Z,3.03
2023-04-21T03:32:33.694Z,3.00
2023-04-21T03:35:00.284Z,3.25
2023-04-21T03:37:26.896Z,3.55
2023-04-21T03:39:53.468Z,3.60
2023-04-21T03:42:20.357Z,4.13
2023-04-21T03:44:46.892Z,2.83
2023-04-21T03:47:13.432Z,2.25
2023-04-21T03:49:39.954Z,3.15
2023-04-21T03:52:06.465Z,3.88
2023-04-21T03:54:33.039Z,3.90
2023-04-21T03:56:59.576Z,7.38
2023-04-21T03:59:26.167Z,3.97
2023-04-21T04:01:52.671Z,4.03
2023-04-21T04:04:19.323Z,2.83
2023-04-21T04:06:46.098Z,1.17
2023-04-21T04:09:13.034Z,3.78
2023-04-21T04:11:39.562Z,2.00
2023-04-21T04:14:06.115Z,3.55
2023-04-21T04:16:34.524Z,2.15
2023-04-21T04:19:01.612Z,1.92
2023-04-21T04:21:28.538Z,2.83
2023-04-21T04:23:55.501Z,2.08
2023-04-21T04:26:25.206Z,3.05
2023-04-21T04:28:53.032Z,5.70
2023-04-21T04:31:19.838Z,3.72
2023-04-21T04:33:46.529Z,2.78
2023-04-21T04:36:13.290Z,3.47
2023-04-21T04:38:40.296Z,4.85
2023-04-21T04:41:08.912Z,4.18
2023-04-21T04:43:41.746Z,2.42
2023-04-21T04:46:12.799Z,3.28
2023-04-21T04:48:39.732Z,2.40
2023-04-21T04:51:06.573Z,2.13
2023-04-21T04:53:33.118Z,2.42
2023-04-21T04:55:59.648Z,2.90
2023-04-21T04:58:26.443Z,3.38
2023-04-21T05:00:53.083Z,4.00
2023-04-21T05:03:19.934Z,3.95
2023-04-21T05:05:46.702Z,3.13
2023-04-21T05:08:13.782Z,2.42
2023-04-21T05:10:41.648Z,1.58
2023-04-21T05:13:08.176Z,3.63
2023-04-21T05:15:34.678Z,1.27
2023-04-21T05:18:01.667Z,2.20
2023-04-21T05:20:28.274Z,2.90
2023-04-21T05:22:54.789Z,2.35
2023-04-21T05:25:21.280Z,2.05
2023-04-21T05:27:48.316Z,4.18
2023-04-21T05:30:15.162Z,3.42
2023-04-21T05:32:41.755Z,3.33
2023-04-21T05:35:08.491Z,4.00
2023-04-21T05:37:35.318Z,3.78
2023-04-21T05:40:01.858Z,3.85
2023-04-21T05:42:28.405Z,3.60
2023-04-21T05:44:55.239Z,2.95
2023-04-21T05:47:21.891Z,4.65
2023-04-21T05:49:52.458Z,3.20
2023-04-21T05:52:19.801Z,2.95
2023-04-21T05:54:46.384Z,3.80
2023-04-21T05:57:13.413Z,6.22
2023-04-21T05:59:39.971Z,5.65
2023-04-21T06:02:06.693Z,7.07
2023-04-21T06:04:33.582Z,3.72
2023-04-21T06:07:10.430Z,3.28
2023-04-21T06:09:36.976Z,3.47
2023-04-21T06:12:03.747Z,2.45
2023-04-21T06:14:30.518Z,4.28
2023-04-21T06:16:57.084Z,4.53
2023-04-21T06:19:23.774Z,3.13
2023-04-21T06:21:50.652Z,4.18
2023-04-21T06:24:24.405Z,5.20
2023-04-21T06:26:52.577Z,3.17
2023-04-21T06:29:19.893Z,6.28
2023-04-21T06:31:46.670Z,4.07
2023-04-21T06:34:13.285Z,3.35
2023-04-21T06:36:40.052Z,1.75
2023-04-21T06:39:06.586Z,3.97
2023-04-21T06:41:33.116Z,3.58
2023-04-21T06:43:59.703Z,4.13
2023-04-21T06:46:26.315Z,2.65
2023-04-21T06:48:52.876Z,4.93
2023-04-21T06:51:19.397Z,5.28
2023-04-21T06:53:45.972Z,4.65
2023-04-21T06:56:12.760Z,4.93
2023-04-21T06:58:39.324Z,3.65
2023-04-21T07:01:05.889Z,3.78
2023-04-21T07:03:33.546Z,3.25
2023-04-21T07:06:00.211Z,2.42
2023-04-21T07:08:27.108Z,3.90
2023-04-21T07:10:53.656Z,2.35
2023-04-21T07:13:20.403Z,3.45
2023-04-21T07:15:46.928Z,3.28
2023-04-21T07:18:13.533Z,3.88
2023-04-21T07:20:40.200Z,3.30
2023-04-21T07:23:06.769Z,3.60
2023-04-21T07:25:33.304Z,5.03
2023-04-21T07:27:59.860Z,3.15
2023-04-21T07:30:26.659Z,4.57
2023-04-21T07:32:53.403Z,2.58
2023-04-21T07:35:20.018Z,4.20
2023-04-21T07:37:46.632Z,4.20
2023-04-21T07:40:14.381Z,3.13
2023-04-21T07:42:40.999Z,3.30
2023-04-21T07:45:07.982Z,2.47
2023-04-21T07:47:34.988Z,1.88
2023-04-21T07:50:01.843Z,2.17
2023-04-21T07:52:28.423Z,2.03
2023-04-21T07:54:54.946Z,3.05
2023-04-21T07:57:21.471Z,1.90
2023-04-21T07:59:49.369Z,1.52
2023-04-21T08:02:16.283Z,5.93
2023-04-21T08:04:42.942Z,3.58
2023-04-21T08:07:10.018Z,4.35
2023-04-21T08:09:36.864Z,4.10
2023-04-21T08:12:03.563Z,3.75
2023-04-21T08:14:30.446Z,2.47
2023-04-21T08:16:57.492Z,5.72
2023-04-21T08:19:24.334Z,5.30
2023-04-21T08:21:51.159Z,2.80
2023-04-21T08:24:17.802Z,5.57
2023-04-21T08:26:44.998Z,3.45
2023-04-21T08:29:13.239Z,2.90
2023-04-21T08:31:39.949Z,3.00
2023-04-21T08:34:07.243Z,3.75
2023-04-21T08:36:33.957Z,2.00
2023-04-21T08:39:01.431Z,4.65
2023-04-21T08:41:28.026Z,4.00
2023-04-21T08:43:54.581Z,3.45
2023-04-21T08:46:21.593Z,4.85
2023-04-21T08:48:48.268Z,4.13
2023-04-21T08:51:27.425Z,2.60
2023-04-21T08:53:57.544Z,3.33
2023-04-21T08:56:26.221Z,3.13
2023-04-21T08:58:53.955Z,2.45
2023-04-21T09:01:20.624Z,2.17
2023-04-21T09:03:47.411Z,2.75
2023-04-21T09:06:14.539Z,1.55
2023-04-21T09:08:53.247Z,4.70
2023-04-21T09:11:19.809Z,2.92
2023-04-21T09:13:46.407Z,2.15
2023-04-21T09:16:21.397Z,4.72
2023-04-21T09:18:49.715Z,2.28
2023-04-21T09:21:17.951Z,2.80
2023-04-21T09:23:49.362Z,3.53
2023-04-21T09:26:17.991Z,4.18
2023-04-21T09:28:48.638Z,2.85
2023-04-21T09:31:17.773Z,2.70
2023-04-21T09:33:57.223Z,3.08
2023-04-21T09:36:31.008Z,2.78
2023-04-21T09:39:24.505Z,2.25
2023-04-21T09:41:46.546Z,2.50
2023-04-21T09:44:13.254Z,2.88
2023-04-21T09:46:43.879Z,3.10
2023-04-21T09:49:13.713Z,3.08
2023-04-21T09:52:06.021Z,1.70
2023-04-21T09:54:34.450Z,2.40
2023-04-21T09:57:04.260Z,3.20
2023-04-21T09:59:44.951Z,1.55
2023-04-21T10:02:12.834Z,1.52
2023-04-21T10:04:41.933Z,2.20
2023-04-21T10:07:09.986Z,5.28
2023-04-21T10:09:50.869Z,3.92
2023-04-21T10:12:18.298Z,2.20
2023-04-21T10:14:45.049Z,2.50
2023-04-21T10:17:12.383Z,4.57
2023-04-21T10:19:50.318Z,2.85
2023-04-21T10:22:30.064Z,3.55
2023-04-21T10:25:00.455Z,3.88
2023-04-21T10:27:45.561Z,2.63
2023-04-21T10:30:23.236Z,1.70
2023-04-21T10:33:03.544Z,3.80
2023-04-21T10:36:03.948Z,2.92
2023-04-21T10:38:35.332Z,1.52
2023-04-21T10:41:28.201Z,1.42
2023-04-21T10:43:59.182Z,1.17
2023-04-21T10:46:36.742Z,1.00
2023-04-21T10:49:30.216Z,1.38
2023-04-21T10:51:59.673Z,2.05
2023-04-21T10:54:43.568Z,3.25
2023-04-21T10:57:12.687Z,3.58
2023-04-21T10:59:40.225Z,1.75
2023-04-21T11:02:08.432Z,7.38
2023-04-21T11:04:35.362Z,2.97
2023-04-21T11:07:06.837Z,1.92
2023-04-21T11:09:34.098Z,2.53
2023-04-21T11:12:07.260Z,2.28
2023-04-21T11:14:36.444Z,1.83
2023-04-21T11:17:04.592Z,3.63
2023-04-21T11:19:34.488Z,3.55
2023-04-21T11:22:01.185Z,3.92
2023-04-21T11:24:27.731Z,4.20
2023-04-21T11:26:54.319Z,5.45
2023-04-21T11:29:20.873Z,5.45
2023-04-21T11:31:48.981Z,6.68
2023-04-21T11:34:17.055Z,3.03
2023-04-21T11:36:45.317Z,4.93
2023-04-21T11:39:15.651Z,4.03
2023-04-21T11:41:48.085Z,3.47
2023-04-21T11:44:30.546Z,4.07
2023-04-21T11:46:57.433Z,3.92
2023-04-21T11:49:29.461Z,4.97
2023-04-21T11:51:56.574Z,5.88
2023-04-21T11:54:27.027Z,5.55
2023-04-21T11:56:54.472Z,7.35
2023-04-21T11:59:25.793Z,4.78
2023-04-21T12:01:54.386Z,4.35
2023-04-21T12:04:23.024Z,3.60
2023-04-21T12:07:02.957Z,2.97
2023-04-21T12:09:30.101Z,4.60
2023-04-21T12:11:59.938Z,5.38
2023-04-21T12:14:27.176Z,2.60
2023-04-21T12:16:56.096Z,3.92
2023-04-21T12:19:36.568Z,3.88
2023-04-21T12:22:08.458Z,5.75
2023-04-21T12:24:36.725Z,5.57
2023-04-21T12:27:03.988Z,3.80
2023-04-21T12:29:30.680Z,3.00
2023-04-21T12:31:57.358Z,4.07
2023-04-21T12:34:24.012Z,3.60
2023-04-21T12:36:50.610Z,3.83
2023-04-21T12:39:18.788Z,2.85
2023-04-21T12:41:47.460Z,3.67
2023-04-21T12:44:14.670Z,2.45
2023-04-21T12:46:41.872Z,2.15
2023-04-21T12:49:09.957Z,2.25
2023-04-21T12:51:36.755Z,0.73
2023-04-21T12:54:04.546Z,1.20
2023-04-21T12:56:31.479Z,1.13
2023-04-21T12:58:58.555Z,0.93
2023-04-21T13:01:36.050Z,0.70
2023-04-21T13:04:06.777Z,1.45
2023-04-21T13:06:42.855Z,0.93
2023-04-21T13:09:09.712Z,1.48
2023-04-21T13:11:36.254Z,1.30
2023-04-21T13:14:04.185Z,1.08
2023-04-21T13:16:31.411Z,2.05
2023-04-21T13:19:01.535Z,1.67
2023-04-21T13:21:32.822Z,1.33
2023-04-21T13:23:59.700Z,1.85
2023-04-21T13:26:27.040Z,2.42
2023-04-21T13:28:54.235Z,1.52
2023-04-21T13:31:21.151Z,2.58
2023-04-21T13:33:47.812Z,0.95
2023-04-21T13:36:14.564Z,1.33
2023-04-21T13:38:41.866Z,1.65
2023-04-21T13:41:11.112Z,1.35
2023-04-21T13:43:37.827Z,0.93
2023-04-21T13:46:04.459Z,1.20
2023-04-21T13:48:31.071Z,0.93
2023-04-21T13:50:57.749Z,1.10
2023-04-21T13:53:24.752Z,1.20
2023-04-21T13:55:56.394Z,0.90
2023-04-21T13:58:30.753Z,1.50
2023-04-21T14:00:59.576Z,1.08
2023-04-21T14:03:30.949Z,1.38
2023-04-21T14:05:57.989Z,1.25
2023-04-21T14:08:24.612Z,0.93
2023-04-21T14:10:51.207Z,0.55
2023-04-21T14:13:36.392Z,0.60
2023-04-21T14:16:10.566Z,0.68
2023-04-21T14:18:47.388Z,1.05
2023-04-21T14:21:14.004Z,1.23
2023-04-21T14:23:40.662Z,0.60
2023-04-21T14:26:20.798Z,1.55
2023-04-21T14:28:47.565Z,0.70
2023-04-21T14:31:14.127Z,1.58
2023-04-21T14:33:41.314Z,0.95
2023-04-21T14:36:11.513Z,0.90
2023-04-21T14:38:48.006Z,0.77
2023-04-21T14:41:14.777Z,1.05
2023-04-21T14:43:41.757Z,0.52
2023-04-21T14:46:09.132Z,1.00
2023-04-21T14:48:35.920Z,0.50
2023-04-21T14:51:02.734Z,1.60
2023-04-21T14:53:29.568Z,0.88
2023-04-21T14:55:56.559Z,0.68
2023-04-21T14:58:23.438Z,0.70
2023-04-21T15:00:50.253Z,1.08
2023-04-21T15:03:17.141Z,1.08
2023-04-21T15:05:50.522Z,1.23
2023-04-21T15:10:45.371Z,0.82
2023-04-21T15:13:12.977Z,1.27
2023-04-21T15:15:40.970Z,0.98
2023-04-21T15:18:08.425Z,0.55
2023-04-21T15:20:44.456Z,0.95
2023-04-21T15:23:13.573Z,0.60
2023-04-21T15:25:40.532Z,0.50
2023-04-21T15:28:07.828Z,0.50
2023-04-21T15:30:37.492Z,0.80
2023-04-21T15:33:04.942Z,0.90
2023-04-21T15:35:32.025Z,1.10
2023-04-21T15:37:58.772Z,1.02
2023-04-21T15:40:27.809Z,1.13
2023-04-21T15:42:54.524Z,0.50
2023-04-21T15:45:26.976Z,0.60
2023-04-21T15:47:53.864Z,0.57
2023-04-21T15:50:20.975Z,1.00
2023-04-21T15:52:48.033Z,1.27
2023-04-21T15:55:17.565Z,1.02
2023-04-21T15:57:45.586Z,0.60
2023-04-21T16:00:13.156Z,1.13
2023-04-21T16:02:42.820Z,1.42
2023-04-21T16:05:09.874Z,0.98
2023-04-21T16:07:38.871Z,0.55
2023-04-21T16:10:06.667Z,0.80
2023-04-21T16:12:33.626Z,0.95
2023-04-21T16:15:16.088Z,1.48
2023-04-21T16:17:48.764Z,0.70
2023-04-21T16:35:11.377Z,2.17
2023-04-21T16:37:40.430Z,0.82
2023-04-21T16:40:08.442Z,0.68
2023-04-21T16:42:35.891Z,1.08
2023-04-21T16:45:05.771Z,3.20
2023-04-21T16:47:37.839Z,1.30
2023-04-21T16:52:33.301Z,0.73
2023-04-21T16:55:00.230Z,1.92
2023-04-21T16:57:28.230Z,0.80
2023-04-21T16:59:55.015Z,1.10
2023-04-21T17:02:21.768Z,1.02
2023-04-21T17:04:48.378Z,0.90
2023-04-21T17:07:15.034Z,0.60
2023-04-21T17:09:41.845Z,0.70
2023-04-21T17:12:09.424Z,1.58
2023-04-21T17:14:36.492Z,3.50
2023-04-21T17:17:03.370Z,2.58
2023-04-21T17:19:30.040Z,1.52
2023-04-21T17:21:56.547Z,0.50
2023-04-21T17:24:23.176Z,1.30
2023-04-21T17:26:49.787Z,1.58
2023-04-21T17:29:16.305Z,0.80
2023-04-21T17:31:42.879Z,0.75
2023-04-21T17:34:09.536Z,0.60
2023-04-21T17:36:36.293Z,1.27
2023-04-21T17:39:02.798Z,1.35
2023-04-21T17:41:29.397Z,1.77
2023-04-21T17:43:55.893Z,0.75
2023-04-21T17:46:25.105Z,2.05
2023-04-21T17:48:52.224Z,0.75
2023-04-21T17:51:19.325Z,0.70
2023-04-21T17:53:46.689Z,1.67
2023-04-21T17:56:14.421Z,1.58
2023-04-21T17:58:41.573Z,1.02
2023-04-21T18:01:08.443Z,0.85
2023-04-21T18:03:36.185Z,1.23
2023-04-21T18:06:04.894Z,0.73
2023-04-21T18:08:31.774Z,1.23
2023-04-21T18:10:58.360Z,1.85
2023-04-21T18:13:25.040Z,11.82
2023-04-21T18:15:51.559Z,1.00
2023-04-21T18:18:18.151Z,1.63
2023-04-21T18:20:44.760Z,1.75
2023-04-21T18:23:11.659Z,1.13
2023-04-21T18:25:42.413Z,1.30
2023-04-21T18:28:11.021Z,2.40
2023-04-21T18:30:38.289Z,1.67
2023-04-21T18:33:05.821Z,3.78
2023-04-21T18:35:33.877Z,2.53
2023-04-21T18:38:00.771Z,0.90
2023-04-21T18:40:27.513Z,1.10
2023-04-21T18:42:54.182Z,4.45
2023-04-21T18:45:20.717Z,1.67
2023-04-21T18:47:47.343Z,2.22
2023-04-21T18:50:14.086Z,1.63
2023-04-21T18:52:40.658Z,1.27
2023-04-21T18:55:07.522Z,1.00
2023-04-21T18:57:34.106Z,1.67
2023-04-21T19:00:00.673Z,0.85
2023-04-21T19:02:29.008Z,1.33
2023-04-21T19:04:55.962Z,0.95
2023-04-21T19:07:22.607Z,1.55
2023-04-21T19:09:49.252Z,6.97
2023-04-21T19:12:16.437Z,2.10
2023-04-21T19:14:47.540Z,3.50
2023-04-21T19:17:15.633Z,1.70
2023-04-21T19:19:42.776Z,0.60
2023-04-21T19:22:09.308Z,2.65
2023-04-21T19:24:36.090Z,0.40
2023-04-21T19:27:03.495Z,0.63
2023-04-21T19:29:31.102Z,1.00
2023-04-21T19:31:58.409Z,1.30
2023-04-21T19:34:25.283Z,0.30
2023-04-21T19:36:52.833Z,0.35
2023-04-21T19:39:19.787Z,0.20
2023-04-21T19:41:46.362Z,0.30
2023-04-21T19:44:12.977Z,0.40
2023-04-21T19:46:42.520Z,0.65
2023-04-21T19:49:12.895Z,0.25
2023-04-21T19:51:40.978Z,0.40
2023-04-21T19:54:11.883Z,0.40
2023-04-21T19:56:39.439Z,0.30
2023-04-21T19:59:06.329Z,0.20
2023-04-21T20:01:33.739Z,0.30
2023-04-21T20:04:00.649Z,0.20
2023-04-21T20:06:28.478Z,0.20
2023-04-21T20:08:55.420Z,0.25
2023-04-21T20:11:22.094Z,0.40
2023-04-21T20:13:48.929Z,0.20
2023-04-21T20:16:17.256Z,0.20
2023-04-21T20:18:43.930Z,0.43
2023-04-21T20:21:10.898Z,0.20
2023-04-21T20:23:37.476Z,0.38
2023-04-21T20:26:04.018Z,0.20
2023-04-21T20:28:30.664Z,0.20
2023-04-21T20:30:57.442Z,0.10
2023-04-21T20:33:24.452Z,0.73
2023-04-21T20:35:52.347Z,0.30
2023-04-21T20:38:18.995Z,3.15
2023-04-21T20:40:46.364Z,1.13
2023-04-21T20:43:13.676Z,1.60
2023-04-21T20:45:41.225Z,0.65
2023-04-21T20:48:07.911Z,0.63
2023-04-21T20:50:34.447Z,0.28
2023-04-21T20:53:01.017Z,0.28
2023-04-21T20:55:27.585Z,0.20
2023-04-21T20:57:54.110Z,0.50
2023-04-21T21:00:20.754Z,0.30
2023-04-21T21:02:47.450Z,0.40
2023-04-21T21:05:14.115Z,0.38
2023-04-21T21:07:40.648Z,2.80
2023-04-21T21:10:08.095Z,1.35
2023-04-21T21:12:34.628Z,1.13
2023-04-21T21:15:01.223Z,0.47
2023-04-21T21:17:27.829Z,0.65
2023-04-21T21:19:54.491Z,0.30
2023-04-21T21:22:20.995Z,1.48
2023-04-21T21:24:48.787Z,1.42
2023-04-21T21:27:15.390Z,8.57
2023-04-21T21:29:42.372Z,4.53
2023-04-21T21:32:09.066Z,5.45
2023-04-21T21:34:35.663Z,4.97
2023-04-21T21:37:02.222Z,8.40
2023-04-21T21:39:28.723Z,7.03
2023-04-21T21:41:55.440Z,2.63
2023-04-21T21:44:21.984Z,2.17
2023-04-21T21:46:50.028Z,0.68
2023-04-21T21:49:16.577Z,0.30
2023-04-21T21:51:43.113Z,0.35
2023-04-21T21:54:09.934Z,0.50
2023-04-21T21:56:36.693Z,0.80
2023-04-21T21:59:03.402Z,0.70
2023-04-21T22:01:29.955Z,1.10
2023-04-21T22:03:56.786Z,0.30
2023-04-21T22:06:26.412Z,0.45
2023-04-21T22:08:52.981Z,0.50
2023-04-21T22:11:20.312Z,0.80
2023-04-21T22:13:46.916Z,0.98
2023-04-21T22:16:13.522Z,2.10
2023-04-21T22:18:40.226Z,0.80
2023-04-21T22:21:06.803Z,0.47
2023-04-21T22:23:33.302Z,1.00
2023-04-21T22:25:59.879Z,0.52
2023-04-21T22:28:26.416Z,0.30
2023-04-21T22:30:53.001Z,0.50
2023-04-21T22:33:19.541Z,0.30
2023-04-21T22:35:46.082Z,0.40
2023-04-21T22:38:12.603Z,0.20
2023-04-21T22:40:39.237Z,0.32
2023-04-21T22:43:06.023Z,0.40
2023-04-21T22:45:32.869Z,0.32
2023-04-21T22:47:59.423Z,0.40
2023-04-21T22:50:25.950Z,0.88
2023-04-21T22:52:52.658Z,0.70
2023-04-21T22:55:19.189Z,0.68
2023-04-21T22:57:45.967Z,0.47
2023-04-21T23:00:12.874Z,0.30
2023-04-21T23:02:39.520Z,0.20
2023-04-21T23:05:06.643Z,0.30
2023-04-21T23:07:33.308Z,0.35
2023-04-21T23:09:59.826Z,0.47
2023-04-21T23:12:26.446Z,0.88
2023-04-21T23:14:53.257Z,1.13
2023-04-21T23:17:19.798Z,0.30
2023-04-21T23:19:46.396Z,0.20
2023-04-21T23:22:12.949Z,0.35
2023-04-21T23:24:39.531Z,0.40
2023-04-21T23:27:06.143Z,2.58
2023-04-21T23:29:32.682Z,0.40
2023-04-21T23:31:59.363Z,0.40
2023-04-21T23:34:25.941Z,0.65
2023-04-21T23:36:52.477Z,0.52
2023-04-21T23:39:21.445Z,0.30
2023-04-21T23:41:48.374Z,0.30
2023-04-21T23:44:15.188Z,1.73
2023-04-21T23:46:41.813Z,0.38
2023-04-21T23:49:08.438Z,0.30
2023-04-21T23:51:35.175Z,0.30
2023-04-21T23:54:02.115Z,0.30
2023-04-21T23:56:29.013Z,0.50
2023-04-21T23:58:55.997Z,0.50
